WXM80 ListenWXM80 Stop

You find our weather info also at:

UK Metoffice

WeatherCloud

Weather Underground

Northeastern Weather Network

AWEKAS

Citizen Weather Observer Program (CWOP)

HAMweather, WeatherForYou, PWS Weather


Weather Underground History page Text

Daily Summary for February 9, 2016 Units:  English    Metric   Both
« Previous Day
Next Day »
Daily Weekly Monthly Yearly Custom
  High: Low: Average:
Temperature: 31.7 °F 26.4 °F 28.5 °F
Dew Point: 27.0 °F 23.8 °F 25.5 °F
Humidity: 91 % 81 % 88 %
Wind Speed: 11.1 mph 0.0 mph 2.8 mph
Wind Gust: 17.3 mph - -
Wind:- - ENE
Pressure: 29.75 in 29.56 in -
Precipitation: 0.00 in    
Historical Graphs
 
 
Tabular Data for February 9, 2016
Time Temperature Dew Point Pressure Wind Wind Speed Wind Gust Humidity Rainfall Rate (Hourly)
00:03 26.9 °F 24.1 °F 29.75 in ENE 5.3 mph 9.2 mph 89 % 0.00 in
00:08 27.0 °F 24.2 °F 29.75 in ENE 6.7 mph 9.2 mph 89 % 0.00 in
00:13 26.9 °F 23.8 °F 29.75 in NE 7.1 mph 9.2 mph 88 % 0.00 in
00:18 26.9 °F 24.1 °F 29.74 in ENE 7.3 mph 10.4 mph 89 % 0.00 in
00:23 26.8 °F 24.0 °F 29.74 in North 3.0 mph 8.1 mph 89 % 0.00 in
00:34 26.7 °F 23.9 °F 29.74 in ENE 6.9 mph 8.1 mph 89 % 0.00 in
00:39 26.8 °F 24.3 °F 29.74 in ENE 5.0 mph 10.4 mph 90 % 0.00 in
00:44 26.8 °F 24.3 °F 29.74 in ENE 5.2 mph 8.1 mph 90 % 0.00 in
00:49 26.9 °F 24.4 °F 29.74 in NE 6.5 mph 9.2 mph 90 % 0.00 in
00:54 26.9 °F 24.4 °F 29.74 in ENE 7.0 mph 9.2 mph 90 % 0.00 in
00:59 26.9 °F 24.1 °F 29.74 in ENE 7.1 mph 10.4 mph 89 % 0.00 in
01:04 27.0 °F 24.2 °F 29.73 in ENE 3.8 mph 5.8 mph 89 % 0.00 in
01:09 27.0 °F 24.2 °F 29.73 in ENE 5.8 mph 9.2 mph 89 % 0.00 in
01:14 27.0 °F 24.2 °F 29.73 in NE 5.1 mph 9.2 mph 89 % 0.00 in
01:19 27.0 °F 24.2 °F 29.73 in ENE 5.6 mph 8.1 mph 89 % 0.00 in
01:25 27.0 °F 24.5 °F 29.72 in NE 5.7 mph 11.5 mph 90 % 0.00 in
01:30 27.0 °F 24.5 °F 29.72 in NE 3.2 mph 8.1 mph 90 % 0.00 in
01:35 27.1 °F 24.6 °F 29.72 in East 6.6 mph 10.4 mph 90 % 0.00 in
01:40 27.2 °F 24.7 °F 29.72 in East 5.6 mph 8.0 mph 90 % 0.00 in
01:45 27.2 °F 24.4 °F 29.72 in ENE 4.5 mph 8.0 mph 89 % 0.00 in
01:50 27.2 °F 24.4 °F 29.72 in ENE 4.4 mph 5.0 mph 89 % 0.00 in
01:55 27.2 °F 24.4 °F 29.73 in ENE 3.7 mph 4.6 mph 89 % 0.00 in
02:00 27.2 °F 24.4 °F 29.73 in East 3.4 mph 5.8 mph 89 % 0.00 in
02:05 27.3 °F 24.5 °F 29.73 in ENE 3.4 mph 6.0 mph 89 % 0.00 in
02:10 27.3 °F 24.5 °F 29.73 in ENE 5.8 mph 7.0 mph 89 % 0.00 in
02:16 27.3 °F 24.8 °F 29.72 in ENE 6.6 mph 9.2 mph 90 % 0.00 in
02:21 27.3 °F 24.8 °F 29.72 in ENE 6.5 mph 9.0 mph 90 % 0.00 in
02:26 27.4 °F 24.9 °F 29.72 in NE 3.7 mph 5.8 mph 90 % 0.00 in
02:31 27.4 °F 24.9 °F 29.71 in East 4.6 mph 8.0 mph 90 % 0.00 in
02:36 27.4 °F 24.9 °F 29.71 in ENE 4.1 mph 7.0 mph 90 % 0.00 in
02:41 27.4 °F 25.1 °F 29.72 in East 5.1 mph 6.9 mph 91 % 0.00 in
02:46 27.5 °F 25.0 °F 29.72 in East 4.5 mph 6.9 mph 90 % 0.00 in
02:51 27.4 °F 24.9 °F 29.72 in East 3.7 mph 6.0 mph 90 % 0.00 in
02:56 27.4 °F 24.9 °F 29.71 in East 3.6 mph 5.0 mph 90 % 0.00 in
03:01 27.4 °F 24.9 °F 29.71 in East 2.2 mph 6.9 mph 90 % 0.00 in
03:07 27.4 °F 25.1 °F 29.71 in Calm   2.3 mph 91 % 0.00 in
03:12 27.4 °F 24.9 °F 29.71 in SSE 2.9 mph 5.8 mph 90 % 0.00 in
03:17 27.3 °F 24.8 °F 29.71 in ESE 0.9 mph 3.5 mph 90 % 0.00 in
03:22 27.2 °F 24.7 °F 29.71 in SE 0.7 mph 2.3 mph 90 % 0.00 in
03:27 27.2 °F 24.7 °F 29.71 in SE 0.8 mph 2.3 mph 90 % 0.00 in
03:32 27.1 °F 24.6 °F 29.71 in SE 0.7 mph 3.0 mph 90 % 0.00 in
03:37 27.1 °F 24.6 °F 29.71 in SE 1.6 mph 3.0 mph 90 % 0.00 in
03:42 27.1 °F 24.6 °F 29.71 in SE 1.4 mph 2.3 mph 90 % 0.00 in
03:47 27.0 °F 24.5 °F 29.70 in East 1.6 mph 3.5 mph 90 % 0.00 in
03:53 27.0 °F 24.5 °F 29.69 in ESE 5.7 mph 7.0 mph 90 % 0.00 in
03:58 27.0 °F 24.5 °F 29.69 in East 3.3 mph 5.8 mph 90 % 0.00 in
04:03 27.1 °F 24.6 °F 29.69 in East 4.3 mph 5.0 mph 90 % 0.00 in
04:08 27.2 °F 24.7 °F 29.68 in East 3.2 mph 5.0 mph 90 % 0.00 in
04:13 27.2 °F 24.7 °F 29.68 in ESE 4.5 mph 8.1 mph 90 % 0.00 in
04:18 27.2 °F 24.7 °F 29.68 in East 4.8 mph 6.9 mph 90 % 0.00 in
04:23 27.2 °F 24.7 °F 29.67 in ENE 4.9 mph 6.9 mph 90 % 0.00 in
04:28 27.3 °F 24.8 °F 29.67 in East 4.3 mph 7.0 mph 90 % 0.00 in
04:33 27.3 °F 24.8 °F 29.67 in ENE 5.3 mph 7.0 mph 90 % 0.00 in
04:38 27.4 °F 24.9 °F 29.66 in East 5.0 mph 6.9 mph 90 % 0.00 in
04:44 27.4 °F 24.9 °F 29.65 in East 4.3 mph 6.9 mph 90 % 0.00 in
04:49 27.4 °F 24.9 °F 29.65 in ENE 8.8 mph 10.0 mph 90 % 0.00 in
04:59 27.5 °F 25.0 °F 29.64 in ENE 11.1 mph 17.3 mph 90 % 0.00 in
05:04 27.5 °F 25.0 °F 29.63 in ENE 8.9 mph 11.5 mph 90 % 0.00 in
05:09 27.4 °F 24.6 °F 29.63 in ENE 8.2 mph 15.0 mph 89 % 0.00 in
05:14 27.4 °F 24.9 °F 29.64 in NE 7.6 mph 11.5 mph 90 % 0.00 in
05:19 27.5 °F 25.0 °F 29.64 in East 6.8 mph 10.0 mph 90 % 0.00 in
05:24 27.4 °F 24.9 °F 29.65 in East 8.0 mph 11.5 mph 90 % 0.00 in
05:35 27.4 °F 24.9 °F 29.64 in ENE 7.4 mph 12.0 mph 90 % 0.00 in
05:40 27.2 °F 24.7 °F 29.64 in ENE 7.3 mph 13.8 mph 90 % 0.00 in
05:45 27.2 °F 24.7 °F 29.64 in East 8.2 mph 11.5 mph 90 % 0.00 in
05:50 27.2 °F 24.9 °F 29.64 in NNE 8.7 mph 12.0 mph 91 % 0.00 in
05:55 27.1 °F 24.8 °F 29.64 in ENE 10.5 mph 12.7 mph 91 % 0.00 in
06:00 27.1 °F 24.8 °F 29.64 in East 8.9 mph 11.5 mph 91 % 0.00 in
06:05 27.1 °F 24.8 °F 29.65 in ENE 9.0 mph 11.5 mph 91 % 0.00 in
06:10 27.0 °F 24.5 °F 29.65 in ENE 6.1 mph 9.2 mph 90 % 0.00 in
06:15 27.0 °F 24.5 °F 29.66 in ENE 6.2 mph 10.0 mph 90 % 0.00 in
06:20 27.0 °F 24.5 °F 29.67 in East 5.3 mph 9.2 mph 90 % 0.00 in
06:26 26.9 °F 24.4 °F 29.68 in East 3.8 mph 5.8 mph 90 % 0.00 in
06:31 26.9 °F 24.4 °F 29.68 in East 6.3 mph 8.1 mph 90 % 0.00 in
06:36 26.9 °F 24.4 °F 29.69 in East 5.4 mph 8.1 mph 90 % 0.00 in
06:41 26.9 °F 24.4 °F 29.69 in East 4.7 mph 8.1 mph 90 % 0.00 in
06:46 26.9 °F 24.4 °F 29.70 in SE 4.0 mph 8.1 mph 90 % 0.00 in
06:51 26.8 °F 24.0 °F 29.70 in SE 4.4 mph 8.1 mph 89 % 0.00 in
06:56 26.8 °F 24.3 °F 29.70 in ESE 3.3 mph 4.6 mph 90 % 0.00 in
07:01 26.7 °F 23.9 °F 29.70 in East 3.4 mph 6.9 mph 89 % 0.00 in
07:06 26.6 °F 24.1 °F 29.70 in East 3.6 mph 5.8 mph 90 % 0.00 in
07:11 26.6 °F 24.1 °F 29.69 in East 5.1 mph 6.0 mph 90 % 0.00 in
07:17 26.6 °F 24.1 °F 29.69 in ENE 3.5 mph 7.0 mph 90 % 0.00 in
07:22 26.6 °F 24.1 °F 29.68 in ENE 2.8 mph 4.6 mph 90 % 0.00 in
07:27 26.7 °F 24.2 °F 29.69 in ENE 3.4 mph 4.6 mph 90 % 0.00 in
07:32 26.7 °F 24.2 °F 29.69 in East 3.6 mph 6.0 mph 90 % 0.00 in
07:37 26.8 °F 24.3 °F 29.68 in ENE 5.2 mph 7.0 mph 90 % 0.00 in
07:42 26.9 °F 24.4 °F 29.68 in ENE 3.1 mph 4.6 mph 90 % 0.00 in
07:47 26.9 °F 24.4 °F 29.68 in East 3.3 mph 4.6 mph 90 % 0.00 in
07:52 27.0 °F 24.5 °F 29.68 in East 5.1 mph 5.8 mph 90 % 0.00 in
07:57 27.1 °F 24.6 °F 29.68 in East 3.4 mph 6.0 mph 90 % 0.00 in
08:02 27.1 °F 24.6 °F 29.68 in ENE 3.3 mph 4.6 mph 90 % 0.00 in
08:08 27.2 °F 24.7 °F 29.68 in ENE 4.0 mph 6.9 mph 90 % 0.00 in
08:13 27.3 °F 24.8 °F 29.68 in NE 2.0 mph 5.8 mph 90 % 0.00 in
08:23 27.5 °F 25.0 °F 29.68 in ENE 3.2 mph 6.9 mph 90 % 0.00 in
08:33 27.7 °F 25.2 °F 29.68 in ENE 5.4 mph 8.1 mph 90 % 0.00 in
08:38 27.9 °F 25.3 °F 29.67 in ENE 4.5 mph 9.2 mph 90 % 0.00 in
08:43 28.1 °F 25.3 °F 29.67 in ENE 3.7 mph 11.5 mph 89 % 0.00 in
08:48 28.3 °F 25.5 °F 29.67 in ENE 3.3 mph 5.0 mph 89 % 0.00 in
08:53 28.4 °F 25.6 °F 29.66 in NNE 7.0 mph 11.5 mph 89 % 0.00 in
08:59 28.5 °F 25.7 °F 29.66 in NNE 5.5 mph 7.0 mph 89 % 0.00 in
09:04 28.4 °F 25.8 °F 29.66 in NNE 6.4 mph 11.0 mph 90 % 0.00 in
09:09 28.4 °F 25.8 °F 29.66 in NE 4.9 mph 9.2 mph 90 % 0.00 in
09:14 28.3 °F 25.7 °F 29.66 in NNE 4.4 mph 6.9 mph 90 % 0.00 in
09:19 28.2 °F 25.6 °F 29.66 in North 4.5 mph 8.1 mph 90 % 0.00 in
09:24 28.1 °F 25.3 °F 29.66 in NE 4.4 mph 10.4 mph 89 % 0.00 in
09:29 27.9 °F 25.1 °F 29.65 in NE 3.2 mph 8.1 mph 89 % 0.00 in
09:34 27.8 °F 25.0 °F 29.65 in ENE 5.0 mph 9.2 mph 89 % 0.00 in
09:39 27.9 °F 25.3 °F 29.64 in ENE 8.2 mph 10.4 mph 90 % 0.00 in
09:44 27.9 °F 25.3 °F 29.64 in ENE 5.6 mph 7.0 mph 90 % 0.00 in
09:50 28.0 °F 25.2 °F 29.64 in NE 4.0 mph 6.9 mph 89 % 0.00 in
09:55 28.0 °F 25.2 °F 29.64 in NE 7.2 mph 10.0 mph 89 % 0.00 in
10:00 28.0 °F 25.2 °F 29.63 in NE 3.5 mph 8.1 mph 89 % 0.00 in
10:05 28.2 °F 25.6 °F 29.63 in NNE 5.5 mph 9.2 mph 90 % 0.00 in
10:10 28.6 °F 26.0 °F 29.63 in NE 3.9 mph 6.9 mph 90 % 0.00 in
10:15 28.9 °F 26.3 °F 29.62 in NE 3.3 mph 9.2 mph 90 % 0.00 in
10:20 29.2 °F 26.4 °F 29.62 in NE 6.0 mph 8.1 mph 89 % 0.00 in
10:25 29.4 °F 26.3 °F 29.62 in ENE 7.6 mph 11.5 mph 88 % 0.00 in
10:30 29.2 °F 25.8 °F 29.63 in ENE 5.7 mph 9.2 mph 87 % 0.00 in
10:35 29.1 °F 25.7 °F 29.63 in ENE 4.9 mph 9.2 mph 87 % 0.00 in
10:41 29.1 °F 25.7 °F 29.62 in NE 2.8 mph 8.1 mph 87 % 0.00 in
10:46 29.3 °F 25.9 °F 29.62 in North 2.5 mph 6.9 mph 87 % 0.00 in
10:51 29.5 °F 26.1 °F 29.62 in NNE 3.1 mph 5.0 mph 87 % 0.00 in
10:56 29.6 °F 26.2 °F 29.62 in NE 3.0 mph 4.6 mph 87 % 0.00 in
11:01 29.7 °F 26.3 °F 29.61 in NNE 2.4 mph 3.5 mph 87 % 0.00 in
11:06 29.8 °F 26.4 °F 29.61 in ENE 5.0 mph 8.1 mph 87 % 0.00 in
11:11 29.6 °F 25.9 °F 29.61 in ENE 5.7 mph 9.2 mph 86 % 0.00 in
11:16 29.4 °F 25.7 °F 29.61 in ENE 2.6 mph 5.8 mph 86 % 0.00 in
11:21 29.2 °F 25.5 °F 29.61 in ENE 5.6 mph 8.1 mph 86 % 0.00 in
11:32 29.2 °F 25.8 °F 29.59 in NE 3.8 mph 6.9 mph 87 % 0.00 in
11:37 29.6 °F 26.2 °F 29.59 in ENE 3.9 mph 7.0 mph 87 % 0.00 in
11:42 29.8 °F 26.1 °F 29.59 in ENE 7.4 mph 10.4 mph 86 % 0.00 in
11:47 29.7 °F 25.7 °F 29.59 in East 4.9 mph 9.0 mph 85 % 0.00 in
11:52 29.8 °F 25.8 °F 29.59 in ENE 6.0 mph 9.2 mph 85 % 0.00 in
11:57 29.7 °F 25.7 °F 29.59 in ENE 3.3 mph 5.8 mph 85 % 0.00 in
12:02 29.7 °F 25.7 °F 29.59 in ENE 5.4 mph 8.1 mph 85 % 0.00 in
12:07 29.6 °F 25.6 °F 29.59 in ENE 6.0 mph 10.4 mph 85 % 0.00 in
12:12 29.5 °F 25.5 °F 29.59 in ENE 4.1 mph 6.9 mph 85 % 0.00 in
12:17 29.5 °F 25.8 °F 29.59 in ENE 4.5 mph 8.1 mph 86 % 0.00 in
12:23 29.5 °F 25.5 °F 29.59 in ENE 1.3 mph 3.5 mph 85 % 0.00 in
12:28 29.5 °F 25.5 °F 29.59 in ENE 2.7 mph 5.0 mph 85 % 0.00 in
12:33 29.7 °F 26.0 °F 29.58 in ENE 4.0 mph 5.8 mph 86 % 0.00 in
12:38 29.7 °F 26.0 °F 29.58 in ENE 2.1 mph 4.6 mph 86 % 0.00 in
12:43 29.9 °F 26.2 °F 29.58 in ENE 2.9 mph 4.6 mph 86 % 0.00 in
12:48 30.1 °F 26.4 °F 29.58 in ENE 3.2 mph 5.8 mph 86 % 0.00 in
12:53 30.2 °F 26.2 °F 29.58 in ENE 2.6 mph 3.5 mph 85 % 0.00 in
12:58 30.2 °F 26.2 °F 29.58 in ENE 2.6 mph 4.6 mph 85 % 0.00 in
13:03 30.1 °F 26.1 °F 29.57 in ENE 1.8 mph 3.5 mph 85 % 0.00 in
13:08 30.2 °F 26.2 °F 29.57 in ENE 2.4 mph 3.5 mph 85 % 0.00 in
13:14 30.3 °F 26.3 °F 29.57 in ENE 2.1 mph 4.6 mph 85 % 0.00 in
13:19 30.7 °F 26.7 °F 29.56 in NE 3.5 mph 4.6 mph 85 % 0.00 in
13:24 31.2 °F 26.9 °F 29.56 in ENE 3.0 mph 3.5 mph 84 % 0.00 in
13:29 31.4 °F 26.5 °F 29.56 in ENE 2.1 mph 3.5 mph 82 % 0.00 in
13:34 31.6 °F 26.7 °F 29.56 in ENE 2.3 mph 3.5 mph 82 % 0.00 in
13:39 31.6 °F 26.4 °F 29.57 in ENE 2.4 mph 3.5 mph 81 % 0.00 in
13:44 31.6 °F 26.7 °F 29.57 in ENE 2.1 mph 3.5 mph 82 % 0.00 in
13:49 31.4 °F 26.2 °F 29.56 in ENE 1.8 mph 3.5 mph 81 % 0.00 in
13:54 31.5 °F 26.6 °F 29.57 in ENE 1.4 mph 3.5 mph 82 % 0.00 in
13:59 31.5 °F 26.6 °F 29.56 in ENE 1.6 mph 2.3 mph 82 % 0.00 in
14:05 31.5 °F 26.6 °F 29.56 in ENE 0.3 mph 2.3 mph 82 % 0.00 in
14:10 31.6 °F 26.4 °F 29.56 in ENE 1.7 mph 2.3 mph 81 % 0.00 in
14:15 31.6 °F 26.4 °F 29.56 in ENE 3.3 mph 5.0 mph 81 % 0.00 in
14:20 31.5 °F 26.3 °F 29.56 in ENE 0.4 mph 2.3 mph 81 % 0.00 in
14:25 31.5 °F 26.3 °F 29.57 in ENE 1.5 mph 3.5 mph 81 % 0.00 in
14:30 31.5 °F 26.3 °F 29.56 in ENE 0.1 mph 1.2 mph 81 % 0.00 in
14:35 31.7 °F 26.8 °F 29.56 in ENE 1.0 mph 2.3 mph 82 % 0.00 in
14:40 31.6 °F 26.7 °F 29.56 in ENE 1.2 mph 3.5 mph 82 % 0.00 in
14:45 31.6 °F 26.7 °F 29.56 in ENE 0.2 mph   82 % 0.00 in
14:50 31.6 °F 26.7 °F 29.56 in ENE 0.5 mph 2.3 mph 82 % 0.00 in
14:56 31.7 °F 26.8 °F 29.56 in ENE 1.3 mph 2.0 mph 82 % 0.00 in
15:01 31.6 °F 27.0 °F 29.56 in Calm     83 % 0.00 in
15:06 31.6 °F 26.7 °F 29.56 in ENE 1.6 mph 3.5 mph 82 % 0.00 in
15:11 31.5 °F 26.3 °F 29.56 in ENE 0.1 mph 1.0 mph 81 % 0.00 in
15:16 31.4 °F 26.5 °F 29.56 in ENE 1.4 mph 3.5 mph 82 % 0.00 in
15:21 31.2 °F 26.0 °F 29.56 in ENE 1.2 mph 3.5 mph 81 % 0.00 in
15:26 31.0 °F 26.1 °F 29.56 in ENE 1.7 mph 3.0 mph 82 % 0.00 in
15:31 30.8 °F 26.0 °F 29.56 in NE 1.2 mph 3.5 mph 82 % 0.00 in
15:36 30.7 °F 26.1 °F 29.56 in ENE 1.4 mph 3.5 mph 83 % 0.00 in
15:41 30.6 °F 26.1 °F 29.56 in ENE 1.0 mph 3.5 mph 83 % 0.00 in
15:47 30.5 °F 26.0 °F 29.56 in ENE 2.3 mph 3.5 mph 83 % 0.00 in
15:52 30.4 °F 25.9 °F 29.57 in ENE 2.2 mph 4.6 mph 83 % 0.00 in
15:57 30.3 °F 25.8 °F 29.57 in East 1.5 mph 4.0 mph 83 % 0.00 in
16:02 30.3 °F 26.0 °F 29.57 in ENE 1.3 mph 2.3 mph 84 % 0.00 in
16:12 30.3 °F 26.0 °F 29.57 in ENE 0.2 mph 2.3 mph 84 % 0.00 in
16:17 30.3 °F 26.0 °F 29.57 in ENE 0.1 mph 1.2 mph 84 % 0.00 in
16:22 30.3 °F 26.0 °F 29.57 in ENE 1.2 mph 2.3 mph 84 % 0.00 in
16:27 30.3 °F 26.0 °F 29.56 in ENE 1.9 mph 2.3 mph 84 % 0.00 in
16:33 30.3 °F 26.0 °F 29.57 in ENE 0.8 mph 3.5 mph 84 % 0.00 in
16:43 30.2 °F 26.2 °F 29.57 in Calm   1.2 mph 85 % 0.00 in
16:53 30.1 °F 26.1 °F 29.57 in Calm     85 % 0.00 in
16:58 30.1 °F 26.1 °F 29.57 in Calm     85 % 0.00 in
17:03 30.0 °F 26.0 °F 29.58 in Calm     85 % 0.00 in
17:08 29.9 °F 25.9 °F 29.58 in Calm     85 % 0.00 in
17:13 29.8 °F 25.6 °F 29.58 in Calm     84 % 0.00 in
17:24 29.6 °F 25.6 °F 29.58 in Calm     85 % 0.00 in
17:29 29.5 °F 25.8 °F 29.58 in Calm     86 % 0.00 in
17:34 29.4 °F 25.7 °F 29.58 in Calm     86 % 0.00 in
17:39 29.3 °F 25.6 °F 29.58 in Calm     86 % 0.00 in
17:44 29.1 °F 25.4 °F 29.58 in Calm     86 % 0.00 in
17:49 29.0 °F 25.6 °F 29.58 in Calm     87 % 0.00 in
17:54 29.0 °F 25.6 °F 29.59 in Calm     87 % 0.00 in
17:59 29.0 °F 25.9 °F 29.59 in Calm     88 % 0.00 in
18:04 28.9 °F 25.8 °F 29.58 in Calm     88 % 0.00 in
18:09 28.9 °F 25.8 °F 29.59 in Calm     88 % 0.00 in
18:15 28.8 °F 25.7 °F 29.59 in Calm     88 % 0.00 in
18:20 28.8 °F 26.0 °F 29.59 in Calm     89 % 0.00 in
18:25 28.8 °F 26.0 °F 29.60 in Calm     89 % 0.00 in
18:30 28.8 °F 26.0 °F 29.60 in Calm   1.2 mph 89 % 0.00 in
18:35 28.8 °F 26.0 °F 29.60 in Calm   1.2 mph 89 % 0.00 in
18:40 28.8 °F 26.0 °F 29.60 in Calm     89 % 0.00 in
18:45 28.8 °F 26.0 °F 29.60 in Calm     89 % 0.00 in
18:50 28.8 °F 26.0 °F 29.60 in Calm     89 % 0.00 in
18:55 28.8 °F 26.0 °F 29.60 in Calm     89 % 0.00 in
19:06 28.8 °F 26.0 °F 29.60 in Calm     89 % 0.00 in
19:11 28.8 °F 26.2 °F 29.60 in Calm     90 % 0.00 in
19:16 28.8 °F 26.2 °F 29.60 in Calm     90 % 0.00 in
19:21 28.8 °F 26.2 °F 29.60 in Calm     90 % 0.00 in
19:26 28.8 °F 26.2 °F 29.60 in Calm     90 % 0.00 in
19:36 28.7 °F 25.9 °F 29.61 in Calm     89 % 0.00 in
19:41 28.7 °F 26.1 °F 29.60 in Calm     90 % 0.00 in
19:46 28.7 °F 26.1 °F 29.60 in Calm     90 % 0.00 in
19:51 28.7 °F 26.1 °F 29.61 in Calm     90 % 0.00 in
19:57 28.7 °F 26.1 °F 29.61 in Calm     90 % 0.00 in
20:02 28.7 °F 26.1 °F 29.61 in Calm     90 % 0.00 in
20:07 28.7 °F 26.1 °F 29.61 in Calm   1.2 mph 90 % 0.00 in
20:12 28.7 °F 26.1 °F 29.61 in Calm     90 % 0.00 in
20:17 28.7 °F 26.1 °F 29.61 in Calm     90 % 0.00 in
20:22 28.7 °F 26.1 °F 29.61 in SSE 0.3 mph 1.2 mph 90 % 0.00 in
20:27 28.8 °F 26.5 °F 29.61 in Calm     91 % 0.00 in
20:32 28.8 °F 26.5 °F 29.61 in Calm   1.2 mph 91 % 0.00 in
20:37 28.8 °F 26.5 °F 29.61 in Calm     91 % 0.00 in
20:42 28.8 °F 26.5 °F 29.61 in Calm     91 % 0.00 in
20:48 28.8 °F 26.5 °F 29.61 in Calm     91 % 0.00 in
20:53 28.8 °F 26.5 °F 29.61 in Calm     91 % 0.00 in
20:58 28.9 °F 26.6 °F 29.61 in Calm     91 % 0.00 in
21:03 28.9 °F 26.6 °F 29.60 in Calm     91 % 0.00 in
21:08 28.9 °F 26.6 °F 29.60 in Calm     91 % 0.00 in
21:13 29.0 °F 26.7 °F 29.60 in Calm     91 % 0.00 in
21:18 29.0 °F 26.7 °F 29.60 in Calm     91 % 0.00 in
21:23 29.0 °F 26.7 °F 29.60 in Calm     91 % 0.00 in
21:28 29.0 °F 26.7 °F 29.60 in Calm     91 % 0.00 in
21:33 29.0 °F 26.7 °F 29.60 in Calm     91 % 0.00 in
21:39 29.0 °F 26.7 °F 29.60 in Calm     91 % 0.00 in
21:44 29.0 °F 26.7 °F 29.61 in Calm     91 % 0.00 in
21:49 29.0 °F 26.7 °F 29.60 in Calm     91 % 0.00 in
21:54 29.0 °F 26.7 °F 29.60 in Calm     91 % 0.00 in
21:59 29.0 °F 26.7 °F 29.60 in Calm     91 % 0.00 in
22:04 29.0 °F 26.7 °F 29.60 in Calm     91 % 0.00 in
22:14 28.8 °F 26.5 °F 29.59 in Calm     91 % 0.00 in
22:19 28.8 °F 26.5 °F 29.59 in Calm     91 % 0.00 in
22:24 28.6 °F 26.0 °F 29.59 in Calm     90 % 0.00 in
22:30 28.4 °F 25.8 °F 29.59 in Calm     90 % 0.00 in
22:35 28.4 °F 25.8 °F 29.59 in Calm     90 % 0.00 in
22:40 28.3 °F 25.7 °F 29.59 in Calm     90 % 0.00 in
22:45 28.1 °F 25.5 °F 29.58 in Calm     90 % 0.00 in
22:50 28.0 °F 25.4 °F 29.58 in Calm     90 % 0.00 in
22:55 27.9 °F 25.3 °F 29.58 in Calm     90 % 0.00 in
23:00 27.8 °F 25.2 °F 29.58 in Calm     90 % 0.00 in
23:05 27.5 °F 25.0 °F 29.58 in Calm     90 % 0.00 in
23:10 27.3 °F 24.8 °F 29.59 in SSE 0.4 mph 1.2 mph 90 % 0.00 in
23:15 27.2 °F 24.7 °F 29.58 in Calm     90 % 0.00 in
23:21 27.0 °F 24.5 °F 29.59 in Calm     90 % 0.00 in
23:26 26.8 °F 24.3 °F 29.59 in Calm     90 % 0.00 in
23:31 26.7 °F 24.2 °F 29.58 in Calm     90 % 0.00 in
23:36 26.6 °F 24.3 °F 29.58 in Calm     91 % 0.00 in
23:41 26.6 °F 24.3 °F 29.59 in Calm     91 % 0.00 in
23:46 26.5 °F 24.2 °F 29.59 in SSE 0.1 mph 1.2 mph 91 % 0.00 in
23:56 26.4 °F 24.1 °F 29.58 in Calm     91 % 0.00 in
Crab Meadow Weather
Compliments of Weather Underground - 2.75 mb

Script developed by  Jim McMurry - jmcmurry@mwt.net Adapted for the template by  Wim van der Kuil - Leuven-Template.eu

Astronomy: It takes 16 million horsepower to break loose from the Earth's gravitational pull.